Flight Track Log - Related Links

Times and Time Zones

All times are in EDT time to prevent confusion due to time zone crossing. See the RSP305 flight status page for this flight to view local times or setup timezone preferences in your user account.

Time Position Orientation Groundspeed Altitude Reporting Facility
EDT Latitude Longitude Course Direction KTS MPH feet Rate Location/Type
Fri 04:14:29 PM 33.1167 -117.3333 320° Northwest 169 194 2,600  Level Southern California TRACON
Fri 04:15:29 PM 33.1167 -117.4000 270° West 197 227 5,000 2,400 Climbing Southern California TRACON
Fri 04:16:04 PM 33.1100 -117.4339 257° West 193 222 6,400 2,412 Climbing Los Angeles Center
Fri 04:17:06 PM 33.1031 -117.4978 263° West 195 224 8,900 2,081 Climbing Los Angeles Center
Fri 04:18:08 PM 33.0944 -117.5644 261° West 200 230 10,700 1,597 Climbing Los Angeles Center
Fri 04:19:00 PM 33.4450 -117.5684 320° Northwest  Level Estimated
Fri 04:19:10 PM 33.1094 -117.6483 282° West 252 290 12,200  Level Los Angeles Center
Fri 04:20:12 PM 33.1372 -117.7267 293° West 256 295 14,200 2,032 Climbing Los Angeles Center
Fri 04:21:14 PM 33.1708 -117.8222 293° West 260 299 16,400 1,694 Climbing Los Angeles Center
Fri 04:22:16 PM 33.1992 -117.9039 293° West 264 304 17,700 1,440 Climbing Los Angeles Center
Fri 04:23:19 PM 33.2275 -117.9881 292° West 269 310 19,400 1,584 Climbing Los Angeles Center
Fri 04:24:21 PM 33.2561 -118.0717 292° West 271 312 21,000 1,548 Climbing Los Angeles Center
Fri 04:25:23 PM 33.2861 -118.1569 293° West 279 321 22,600 1,403 Climbing Los Angeles Center
Fri 04:26:25 PM 33.3372 -118.2256 312° West 273 314 23,900 1,355 Climbing Los Angeles Center
Fri 04:27:27 PM 33.4022 -118.3103 313° West 282 325 25,400 1,500 Climbing Los Angeles Center
Fri 04:28:29 PM 33.4581 -118.3825 313° West 289 333 27,000 1,355 Climbing Los Angeles Center
Fri 04:29:31 PM 33.5122 -118.4525 313° West 287 330 28,200 1,248 Climbing Los Angeles Center
Fri 04:30:34 PM 33.5669 -118.5233 313° West 287 330 29,600 1,392 Climbing Los Angeles Center
Fri 04:31:36 PM 33.6203 -118.5942 312° West 284 327 31,100 1,403 Climbing Los Angeles Center
Fri 04:32:38 PM 33.6722 -118.6619 313° West 277 319 32,500 1,306 Climbing Los Angeles Center
Fri 04:33:40 PM 33.7242 -118.7297 313° West 274 315 33,800 1,355 Climbing Los Angeles Center
Fri 04:34:42 PM 33.7844 -118.8078 313° West 265 305 35,300 1,258 Climbing Los Angeles Center
Fri 04:35:44 PM 33.8328 -118.8722 312° West 260 299 36,400 1,113 Climbing Los Angeles Center
Fri 04:36:46 PM 33.8803 -118.9339 313° West 253 291 37,600 768 Climbing Los Angeles Center
Fri 04:37:49 PM 33.9256 -118.9950 312° West 245 282 38,000 192 Climbing Los Angeles Center
Fri 04:38:51 PM 33.9764 -119.0606 313° West 264 304 38,000  Level Los Angeles Center
Fri 04:39:53 PM 34.0297 -119.1333 311° West 286 329 38,000  Level Los Angeles Center
Fri 04:40:56 PM 34.0983 -119.2233 313° West 301 346 38,000  Level Los Angeles Center
Fri 04:41:57 PM 34.1619 -119.2939 317° Northwest 308 354 38,000  Level Los Angeles Center
Fri 04:42:59 PM 34.2328 -119.3600 322° Northwest 317 365 38,000  Level Los Angeles Center
Fri 04:44:01 PM 34.3011 -119.4272 321° Northwest 317 365 38,000  Level Los Angeles Center
Fri 04:45:04 PM 34.3703 -119.4944 321° Northwest 318 366 38,000  Level Los Angeles Center
Fri 04:46:18 PM 34.4394 -119.5631 321° Northwest 321 369 38,000  Level Los Angeles Center
Fri 04:47:20 PM 34.5369 -119.6575 321° Northwest 320 368 38,000  Level Los Angeles Center
Fri 04:48:22 PM 34.6050 -119.7256 321° Northwest 319 367 38,000  Level Los Angeles Center
Fri 04:49:25 PM 34.6722 -119.7894 322° Northwest 320 368 38,000  Level Los Angeles Center
Fri 04:50:27 PM 34.7419 -119.8581 321° Northwest 320 368 38,000  Level Los Angeles Center
Fri 04:51:29 PM 34.8242 -119.9411 320° Northwest 321 369 38,000  Level Los Angeles Center
Fri 04:52:31 PM 34.8939 -120.0100 321° Northwest 322 371 38,000  Level Los Angeles Center
Fri 04:53:33 PM 34.9636 -120.0786 321° Northwest 321 369 38,000  Level Los Angeles Center
Fri 04:54:35 PM 35.0378 -120.1533 320° Northwest 324 373 38,000  Level Los Angeles Center
Fri 04:55:37 PM 35.1069 -120.2222 321° Northwest 323 372 38,000  Level Los Angeles Center
Fri 04:56:39 PM 35.1756 -120.2917 320° Northwest 322 371 38,000  Level Los Angeles Center
Fri 04:57:42 PM 35.2447 -120.3608 321° Northwest 322 371 38,000  Level Los Angeles Center
Fri 04:58:44 PM 35.3119 -120.4306 320° Northwest 320 368 38,000  Level Los Angeles Center
Fri 04:59:46 PM 35.3986 -120.5203 320° Northwest 334 384 38,000  Level Los Angeles Center
Fri 05:00:48 PM 35.4769 -120.5736 331° Northwest 340 391 38,000  Level Los Angeles Center
Fri 05:01:50 PM 35.5569 -120.6294 330° Northwest 334 384 38,000  Level Los Angeles Center
Fri 05:02:52 PM 35.6378 -120.6872 330° Northwest 336 387 38,000  Level Los Angeles Center
Fri 05:03:33 PM 35.6894 -120.7228 331° Northwest 335 386 38,000  Level Oakland Center
Fri 05:04:35 PM 35.7850 -120.7919 330° Northwest 333 383 38,000  Level Oakland Center
Fri 05:05:37 PM 35.8658 -120.8486 330° Northwest 334 384 38,000  Level Oakland Center
Fri 05:06:38 PM 35.9464 -120.9072 330° Northwest 336 387 38,000  Level Oakland Center
Fri 05:07:40 PM 36.0275 -120.9653 330° Northwest 339 390 38,000  Level Oakland Center
Fri 05:08:42 PM 36.1078 -121.0228 330° Northwest 334 384 38,000  Level Oakland Center
Fri 05:09:44 PM 36.1883 -121.0811 330° Northwest 337 388 38,000  Level Oakland Center
Fri 05:10:45 PM 36.2678 -121.1389 330° Northwest 332 382 38,000 -197 Level Oakland Center
Fri 05:11:46 PM 36.3661 -121.2097 330° Northwest 340 391 37,600 -390 Descending Oakland Center
Fri 05:12:48 PM 36.4503 -121.2706 330° Northwest 350 403 37,200 -435 Descending Oakland Center
Fri 05:13:50 PM 36.5353 -121.3344 329° Northwest 357 411 36,700 -488 Descending Oakland Center
Fri 05:14:51 PM 36.6225 -121.3989 329° Northwest 364 419 36,200 -878 Descending Oakland Center
Fri 05:15:53 PM 36.7122 -121.4619 331° Northwest 370 426 34,900 -1,610 Descending Oakland Center
Fri 05:16:54 PM 36.8011 -121.5303 328° Northwest 376 433 32,900 -1,902 Descending Oakland Center
Fri 05:17:56 PM 36.8897 -121.5953 330° Northwest 381 438 31,000 -2,081 Descending Oakland Center
Fri 05:18:58 PM 36.9992 -121.6764 329° Northwest 383 441 28,600 -2,146 Descending Oakland Center
Fri 05:19:59 PM 37.0922 -121.7469 329° Northwest 391 450 26,600 -1,902 Descending Oakland Center
Fri 05:21:01 PM 37.1861 -121.8172 329° Northwest 393 452 24,700 -1,317 Descending Oakland Center
Fri 05:22:02 PM 37.2786 -121.8858 329° Northwest 388 447 23,900 -1,317 Descending Oakland Center
Fri 05:23:04 PM 37.3678 -121.9536 329° Northwest 378 435 22,000 -1,964 Descending Oakland Center
Fri 05:23:52 PM 37.4500 -122.0167 329° Northwest 364 419 20,300 -2,056 Descending Northern Cal TRACON
Fri 05:24:52 PM 37.5333 -122.0833 328° Northwest 349 402 18,300 -1,950 Descending Northern Cal TRACON
Fri 05:25:52 PM 37.6167 -122.1333 335° Northwest 337 388 16,400 -1,890 Descending Northern Cal TRACON
Fri 05:28:12 PM 37.7692 -122.3222 316° Northwest 339 390 12,000 -1,842 Descending Oakland Center
Fri 05:29:14 PM 37.8317 -122.4000 316° Northwest 320 368 10,200 -1,306 Descending Oakland Center
Fri 05:30:16 PM 37.8983 -122.4586 325° Northwest 313 360 9,300 -871 Descending Oakland Center
Fri 05:31:18 PM 37.9772 -122.4361 13° North 300 345 8,400 -1,610 Descending Oakland Center
Fri 05:32:19 PM 38.0697 -122.4061 14° North 294 338 6,000 -2,000 Descending Oakland Center
Fri 05:33:21 PM 38.1339 -122.3664 26° Northeast 264 304 4,300 -1,355 Descending Oakland Center
Fri 05:34:23 PM 38.1869 -122.3378 23° Northeast 225 259 3,200 -976 Descending Oakland Center
Fri 05:35:24 PM 38.2331 -122.3178 19° North 194 223 2,300 -878 Descending Oakland Center
Fri 05:36:26 PM 38.2553 -122.2953 38° Northeast 153 176 1,400 -871 Descending Oakland Center

Login

Don't have an account? Register now (free) for customized features, flight alerts, and more!